Time;durP1;ratioP1;P1;durP2;ratioP2;P2;SDS_P1;SDS_P2;PMS_P1;PMS_P2;Temp;Humidity;BMP_temperature;BMP_pressure;BME280_temperature;BME280_humidity;BME280_pressure;Samples;Min_cycle;Max_cycle;Signal;HPM_P1;HPM_P2
2022/10/09 00:01:32;;;;;;;2.93;2.03;;;13.70;75.10;13.70;97270.00;;;;5030353;28;20759;-79
2022/10/09 00:04:00;;;;;;;2.57;1.70;;;13.60;74.80;13.70;97274.00;;;;5031607;28;20271;-79
2022/10/09 00:06:30;;;;;;;3.20;1.77;;;13.60;74.70;13.70;97268.00;;;;5019533;28;20293;-79
2022/10/09 00:08:59;;;;;;;2.10;1.90;;;13.60;74.70;13.60;97269.00;;;;5012465;28;20199;-79
2022/10/09 00:11:35;;;;;;;3.17;1.80;;;13.50;74.70;13.60;97275.00;;;;5025149;28;20733;-79
2022/10/09 00:14:12;;;;;;;2.40;2.20;;;13.50;74.90;13.60;97272.00;;;;5032356;28;20681;-79
2022/10/09 00:16:39;;;;;;;2.90;1.90;;;13.50;75.10;13.60;97271.00;;;;5032020;28;20217;-79
2022/10/09 00:19:12;;;;;;;1.80;1.67;;;13.50;75.10;13.50;97273.00;;;;5032083;28;20396;-79
2022/10/09 00:21:43;;;;;;;1.87;1.70;;;13.50;75.00;13.50;97270.00;;;;5032392;28;20252;-79
2022/10/09 00:24:16;;;;;;;1.63;1.53;;;13.40;74.70;13.40;97263.00;;;;5031490;28;20244;-79
2022/10/09 00:26:47;;;;;;;6.30;1.90;;;13.40;74.50;13.40;97262.00;;;;5031984;28;20181;-80
2022/10/09 00:29:18;;;;;;;1.90;1.67;;;13.40;74.30;13.30;97265.00;;;;5031953;28;20292;-80
2022/10/09 00:31:49;;;;;;;2.53;1.73;;;13.30;74.20;13.30;97261.00;;;;5031351;28;20249;-79
2022/10/09 00:34:19;;;;;;;2.13;1.77;;;13.30;74.30;13.30;97260.00;;;;5030668;28;20205;-80
2022/10/09 00:36:49;;;;;;;1.60;1.47;;;13.20;74.30;13.20;97249.00;;;;5032255;28;20551;-80
2022/10/09 00:39:16;;;;;;;1.70;1.60;;;13.20;74.40;13.20;97257.00;;;;5040059;28;20293;-81
2022/10/09 00:41:43;;;;;;;2.07;1.60;;;13.20;74.50;13.10;97249.00;;;;5031684;28;20713;-79
2022/10/09 00:44:56;;;;;;;2.13;1.70;;;13.10;74.30;13.10;97240.00;;;;5031736;28;20319;-80
2022/10/09 00:47:31;;;;;;;1.90;1.63;;;13.10;74.00;13.00;97248.00;;;;5031606;28;20208;-80
2022/10/09 00:50:06;;;;;;;11.93;2.17;;;13.00;74.00;13.00;97247.00;;;;5031700;28;20227;-80
2022/10/09 00:52:34;;;;;;;2.00;1.83;;;13.00;74.20;13.00;97239.00;;;;5031960;28;20220;-80
2022/10/09 00:55:03;;;;;;;2.90;1.80;;;13.00;74.20;12.90;97229.00;;;;5031750;28;20205;-79
2022/10/09 00:57:33;;;;;;;2.10;1.30;;;12.90;74.30;12.90;97229.00;;;;5032254;28;20296;-79
2022/10/09 01:00:08;;;;;;;2.03;1.83;;;12.90;74.40;12.90;97231.00;;;;5031730;28;20237;-79
2022/10/09 01:02:35;;;;;;;1.60;1.50;;;12.90;74.50;12.90;97228.00;;;;5031499;28;20301;-80
2022/10/09 01:05:06;;;;;;;2.47;1.60;;;12.80;74.60;12.90;97228.00;;;;5030874;28;20229;-79
2022/10/09 01:07:48;;;;;;;3.23;1.60;;;12.80;74.80;12.90;97217.00;;;;5031517;28;20196;-80
2022/10/09 01:18:15;;;;;;;3.70;1.97;;;12.70;74.50;12.80;97207.00;;;;5075578;28;20199;-87
2022/10/09 01:20:52;;;;;;;3.33;1.80;;;12.70;74.40;12.70;97204.00;;;;5064262;28;20195;-87
2022/10/09 01:24:04;;;;;;;3.73;1.50;;;12.70;74.40;12.70;97206.00;;;;5078302;28;20223;-87
2022/10/09 01:27:08;;;;;;;1.63;1.53;;;12.70;74.40;12.70;97200.00;;;;5063569;28;20207;-87
2022/10/09 01:29:42;;;;;;;1.50;1.40;;;12.60;74.50;12.60;97207.00;;;;5079028;28;20652;-87
2022/10/09 01:32:14;;;;;;;2.23;1.60;;;12.60;74.50;12.60;97195.00;;;;5077273;28;20257;-86
2022/10/09 01:34:47;;;;;;;3.03;1.73;;;12.60;74.70;12.60;97194.00;;;;5078262;28;20253;-86
2022/10/09 01:37:17;;;;;;;1.67;1.57;;;12.60;74.80;12.60;97198.00;;;;5068038;28;20196;-86
2022/10/09 01:39:46;;;;;;;3.43;1.87;;;12.50;74.90;12.60;97188.00;;;;5071714;28;20245;-86
2022/10/09 01:42:18;;;;;;;1.90;1.57;;;12.20;74.60;12.50;97195.00;;;;5077137;28;20573;-87
2022/10/09 01:44:45;;;;;;;2.50;1.63;;;12.50;74.60;12.50;97192.00;;;;5076838;28;20227;-86
2022/10/09 01:47:19;;;;;;;1.70;1.60;;;12.50;74.60;12.50;97191.00;;;;5074911;28;20275;-86
2022/10/09 01:49:54;;;;;;;1.87;1.77;;;12.40;74.40;12.40;97192.00;;;;5069738;28;20201;-86
2022/10/09 01:52:44;;;;;;;1.93;1.73;;;12.40;74.40;12.40;97191.00;;;;5070106;28;20571;-86
2022/10/09 01:55:33;;;;;;;2.17;1.77;;;12.40;74.60;12.40;97186.00;;;;5065888;28;20208;-86
2022/10/09 01:58:12;;;;;;;2.10;1.73;;;12.40;74.70;12.40;97192.00;;;;5064875;28;20228;-86
2022/10/09 02:00:47;;;;;;;1.90;1.63;;;12.40;74.90;12.40;97185.00;;;;5078648;28;20199;-86
2022/10/09 02:03:23;;;;;;;2.43;1.60;;;12.30;75.10;12.40;97185.00;;;;5062610;28;20671;-86
2022/10/09 02:06:04;;;;;;;1.80;1.70;;;12.30;75.00;12.30;97178.00;;;;5057743;28;20208;-86
2022/10/09 02:08:34;;;;;;;1.77;1.67;;;12.30;74.80;12.30;97176.00;;;;5075768;28;20214;-86
2022/10/09 02:11:09;;;;;;;3.40;1.67;;;12.30;74.70;12.30;97168.00;;;;5077866;28;20208;-85
2022/10/09 02:13:38;;;;;;;3.03;2.00;;;12.30;74.80;12.30;97178.00;;;;5064632;28;20670;-87
2022/10/09 02:16:15;;;;;;;1.87;1.60;;;12.30;74.70;12.30;97167.00;;;;5072284;28;20249;-87
2022/10/09 02:18:46;;;;;;;2.67;1.50;;;12.20;74.60;12.20;97169.00;;;;5076340;28;20192;-87
2022/10/09 02:21:20;;;;;;;2.13;1.77;;;12.20;74.50;12.20;97165.00;;;;5075216;28;20215;-87
2022/10/09 02:23:55;;;;;;;2.17;1.97;;;12.20;74.40;12.20;97166.00;;;;5074324;28;20215;-87
2022/10/09 02:26:26;;;;;;;2.00;1.50;;;12.20;74.40;12.10;97166.00;;;;5073186;28;20222;-87
2022/10/09 02:28:54;;;;;;;2.43;1.70;;;12.10;74.40;12.10;97162.00;;;;5075017;28;20192;-87
2022/10/09 02:31:26;;;;;;;1.70;1.60;;;12.10;74.60;12.10;97160.00;;;;5057006;28;20221;-87
2022/10/09 02:34:05;;;;;;;2.50;1.70;;;12.10;74.70;12.10;97158.00;;;;5054858;28;20275;-87
2022/10/09 02:36:37;;;;;;;1.93;1.77;;;12.10;74.90;12.10;97155.00;;;;5071741;28;20560;-87
2022/10/09 02:39:06;;;;;;;1.97;1.87;;;12.10;75.10;12.10;97147.00;;;;5066628;28;20620;-87
2022/10/09 02:41:34;;;;;;;1.93;1.73;;;12.10;75.20;12.20;97152.00;;;;5059054;28;20274;-87
2022/10/09 02:44:04;;;;;;;2.60;1.60;;;12.10;75.30;12.20;97146.00;;;;5060716;28;20301;-87
2022/10/09 02:46:32;;;;;;;1.70;1.60;;;12.10;75.40;12.20;97143.00;;;;5073242;28;20204;-87
2022/10/09 02:48:59;;;;;;;1.73;1.63;;;12.10;75.40;12.20;97150.00;;;;5069781;28;20236;-87
2022/10/09 02:51:27;;;;;;;2.87;2.10;;;12.10;75.20;12.20;97148.00;;;;5056982;28;20251;-87
2022/10/09 02:53:59;;;;;;;1.87;1.70;;;12.10;75.20;12.20;97147.00;;;;5073823;28;20277;-87
2022/10/09 02:56:30;;;;;;;1.73;1.60;;;12.10;75.10;12.20;97140.00;;;;5056282;28;20238;-86
2022/10/09 02:58:59;;;;;;;2.10;1.90;;;12.10;74.80;12.10;97144.00;;;;5073635;28;20283;-87
2022/10/09 03:01:28;;;;;;;2.37;1.63;;;12.10;74.60;12.10;97131.00;;;;5074571;28;20223;-87
2022/10/09 03:04:01;;;;;;;2.17;1.97;;;12.00;74.40;12.00;97140.00;;;;5072212;28;20295;-87
2022/10/09 03:06:30;;;;;;;2.00;1.73;;;12.10;74.30;12.00;97139.00;;;;5064823;28;20219;-87
2022/10/09 03:09:03;;;;;;;2.00;1.80;;;12.00;74.20;12.00;97139.00;;;;5068875;28;20220;-87
2022/10/09 03:11:33;;;;;;;2.63;2.13;;;12.00;74.30;12.00;97121.00;;;;5070330;28;20247;-87
2022/10/09 03:14:03;;;;;;;1.70;1.60;;;12.00;74.30;11.90;97128.00;;;;5062345;28;20643;-87
2022/10/09 03:16:37;;;;;;;1.70;1.60;;;11.90;74.20;11.90;97132.00;;;;5068265;28;20228;-87
2022/10/09 03:19:05;;;;;;;2.37;1.90;;;11.90;74.00;11.90;97127.00;;;;5057551;28;20203;-87
2022/10/09 03:21:32;;;;;;;1.87;1.77;;;11.90;73.90;11.80;97126.00;;;;5072149;28;20220;-87
2022/10/09 03:24:07;;;;;;;1.87;1.63;;;11.80;73.70;11.80;97129.00;;;;5073197;28;20838;-87
2022/10/09 03:26:49;;;;;;;1.83;1.67;;;11.80;73.80;11.70;97127.00;;;;5072770;28;20679;-87
2022/10/09 03:29:18;;;;;;;2.93;2.20;;;11.80;73.70;11.70;97126.00;;;;5073736;28;20547;-87
2022/10/09 03:31:55;;;;;;;2.20;2.00;;;11.60;73.60;11.60;97125.00;;;;5069595;28;20246;-87
2022/10/09 03:34:31;;;;;;;1.87;1.77;;;11.70;73.70;11.60;97126.00;;;;5070883;28;20226;-87
2022/10/09 03:37:01;;;;;;;3.23;1.67;;;11.60;73.60;11.50;97124.00;;;;5052983;28;20366;-87
2022/10/09 03:39:32;;;;;;;2.10;1.80;;;11.60;73.70;11.50;97127.00;;;;5065574;28;20246;-87
2022/10/09 03:42:07;;;;;;;1.80;1.70;;;11.60;73.70;11.50;97129.00;;;;5068040;28;20265;-87
2022/10/09 03:44:40;;;;;;;2.43;2.17;;;11.50;73.60;11.40;97130.00;;;;5070292;28;20254;-87
2022/10/09 03:47:08;;;;;;;2.30;2.00;;;11.50;73.60;11.40;97130.00;;;;5066028;28;20284;-87
2022/10/09 03:49:45;;;;;;;2.23;1.90;;;11.50;73.70;11.40;97127.00;;;;5067985;28;20277;-87
2022/10/09 03:52:18;;;;;;;1.73;1.63;;;11.40;73.70;11.30;97129.00;;;;5052562;28;20217;-87
2022/10/09 03:54:50;;;;;;;2.63;2.00;;;11.40;73.70;11.30;97127.00;;;;5055162;28;20204;-87
2022/10/09 03:57:17;;;;;;;3.93;2.03;;;11.30;73.70;11.30;97125.00;;;;5072609;28;20227;-87
2022/10/09 03:59:45;;;;;;;2.17;1.73;;;11.30;73.70;11.30;97130.00;;;;5059705;28;20193;-87
2022/10/09 04:02:18;;;;;;;2.97;1.60;;;11.30;73.70;11.20;97133.00;;;;5061005;28;20251;-87
2022/10/09 04:04:51;;;;;;;2.53;1.70;;;11.30;73.80;11.20;97133.00;;;;5069989;28;20276;-86
2022/10/09 04:07:18;;;;;;;2.43;1.73;;;11.30;74.00;11.20;97141.00;;;;5061957;28;20204;-87
2022/10/09 04:09:51;;;;;;;3.37;2.00;;;11.20;74.00;11.20;97136.00;;;;5063970;28;20222;-86
2022/10/09 04:12:18;;;;;;;2.47;2.07;;;11.20;74.20;11.20;97125.00;;;;5067502;28;20291;-86
2022/10/09 04:14:49;;;;;;;2.50;2.07;;;11.20;74.40;11.20;97124.00;;;;5067122;28;20715;-87
2022/10/09 04:17:20;;;;;;;5.03;2.20;;;11.20;74.80;11.20;97123.00;;;;5063407;28;20208;-86
2022/10/09 04:19:51;;;;;;;3.27;2.37;;;11.20;75.00;11.20;97119.00;;;;5061889;28;20197;-85
2022/10/09 04:22:18;;;;;;;1.70;1.60;;;11.20;74.90;11.20;97121.00;;;;5059809;28;20295;-86
2022/10/09 04:24:46;;;;;;;1.80;1.67;;;11.20;74.70;11.20;97123.00;;;;5071556;28;20204;-86
2022/10/09 04:27:14;;;;;;;2.33;1.90;;;11.20;74.70;11.20;97124.00;;;;5059781;28;20204;-86
2022/10/09 04:29:41;;;;;;;1.83;1.73;;;11.20;74.60;11.20;97117.00;;;;5057828;28;20202;-86
2022/10/09 04:32:13;;;;;;;2.87;1.90;;;11.20;74.50;11.20;97125.00;;;;5072501;28;20247;-86
2022/10/09 04:34:42;;;;;;;1.57;1.47;;;11.10;74.50;11.20;97114.00;;;;5069636;28;20219;-86
2022/10/09 04:37:13;;;;;;;2.53;2.17;;;11.20;74.70;11.10;97126.00;;;;5071922;28;20222;-86
2022/10/09 04:39:43;;;;;;;2.70;2.23;;;11.10;74.80;11.10;97116.00;;;;5067567;28;20235;-86
2022/10/09 04:42:10;;;;;;;2.07;1.87;;;11.10;75.00;11.10;97107.00;;;;5051984;28;20208;-85
2022/10/09 04:44:37;;;;;;;2.37;2.17;;;11.10;75.10;11.10;97111.00;;;;5052275;28;20231;-86
2022/10/09 04:47:12;;;;;;;2.20;2.00;;;11.10;75.20;11.10;97110.00;;;;5051198;28;20652;-86
2022/10/09 04:49:39;;;;;;;1.90;1.80;;;11.10;75.50;11.20;97118.00;;;;5067172;28;20249;-86
2022/10/09 04:52:10;;;;;;;2.67;2.20;;;11.20;75.70;11.20;97113.00;;;;5071948;28;20212;-86
2022/10/09 04:54:40;;;;;;;2.70;2.10;;;11.20;75.90;11.20;97120.00;;;;5052269;28;20185;-86
2022/10/09 04:57:10;;;;;;;2.23;2.03;;;11.20;75.90;11.30;97124.00;;;;5056042;28;20245;-87
2022/10/09 04:59:37;;;;;;;4.27;2.50;;;11.20;76.10;11.30;97121.00;;;;5072671;28;20203;-86
2022/10/09 05:02:04;;;;;;;3.20;2.30;;;11.20;76.10;11.30;97113.00;;;;5071488;28;20208;-86
2022/10/09 05:04:37;;;;;;;3.17;2.40;;;11.30;76.30;11.30;97114.00;;;;5071367;28;20223;-86
2022/10/09 05:07:10;;;;;;;2.70;2.20;;;11.30;76.50;11.40;97112.00;;;;5068680;28;20192;-86
2022/10/09 05:09:38;;;;;;;3.13;2.83;;;11.30;76.70;11.40;97113.00;;;;5070430;28;20230;-87
2022/10/09 05:12:08;;;;;;;3.30;2.70;;;11.30;76.80;11.50;97109.00;;;;5062073;28;20238;-86
2022/10/09 05:14:35;;;;;;;5.77;2.67;;;11.40;76.90;11.50;97115.00;;;;5054587;28;20253;-86
2022/10/09 05:17:04;;;;;;;2.83;2.50;;;11.40;77.00;11.50;97120.00;;;;5070734;28;20729;-86
2022/10/09 05:19:36;;;;;;;3.73;2.80;;;11.40;77.00;11.50;97124.00;;;;5064552;28;20601;-86
2022/10/09 05:22:03;;;;;;;2.83;2.63;;;11.40;77.00;11.60;97129.00;;;;5067916;28;20810;-86
2022/10/09 05:24:32;;;;;;;3.80;2.90;;;11.50;77.10;11.60;97127.00;;;;5068781;28;20219;-86
2022/10/09 05:27:09;;;;;;;3.23;2.93;;;11.50;77.10;11.70;97122.00;;;;5055570;28;20224;-86
2022/10/09 05:29:44;;;;;;;3.03;2.70;;;11.50;77.10;11.70;97131.00;;;;5051775;28;20196;-86
2022/10/09 05:32:13;;;;;;;3.27;2.90;;;11.60;77.10;11.70;97134.00;;;;5068842;28;20215;-86
2022/10/09 05:34:47;;;;;;;3.60;2.90;;;11.60;77.10;11.70;97125.00;;;;5071755;28;20290;-86
2022/10/09 05:37:20;;;;;;;4.20;3.20;;;11.60;77.20;11.80;97129.00;;;;5055183;28;20204;-86
2022/10/09 05:39:51;;;;;;;3.17;2.97;;;11.70;77.30;11.80;97130.00;;;;5059662;28;20205;-86
2022/10/09 05:42:29;;;;;;;4.17;3.87;;;11.70;77.40;11.80;97129.00;;;;5068803;28;20238;-85
2022/10/09 05:44:59;;;;;;;4.20;3.30;;;11.70;77.50;11.90;97124.00;;;;5067253;28;20280;-85
2022/10/09 05:47:32;;;;;;;3.20;2.90;;;11.80;77.60;11.90;97124.00;;;;5052437;28;20201;-85
2022/10/09 05:50:05;;;;;;;3.60;3.30;;;11.80;77.60;12.00;97121.00;;;;5051418;28;20229;-85
2022/10/09 05:52:39;;;;;;;3.33;3.03;;;11.80;77.60;12.10;97114.00;;;;5066623;28;20733;-85
2022/10/09 05:55:13;;;;;;;5.03;3.10;;;11.90;77.60;12.10;97116.00;;;;5068679;28;20200;-85
2022/10/09 05:57:43;;;;;;;3.23;2.83;;;11.90;77.60;12.20;97112.00;;;;5073277;28;20284;-86
2022/10/09 06:00:23;;;;;;;2.93;2.63;;;11.90;77.50;12.20;97111.00;;;;5058658;28;20200;-85
2022/10/09 06:02:51;;;;;;;3.23;2.60;;;12.00;77.50;12.20;97123.00;;;;5066176;28;20208;-85
2022/10/09 06:05:21;;;;;;;3.80;2.47;;;12.00;77.50;12.20;97121.00;;;;5066232;28;20215;-85
2022/10/09 06:07:49;;;;;;;3.03;2.83;;;12.00;77.60;12.30;97122.00;;;;5061516;28;20283;-85
2022/10/09 06:10:17;;;;;;;2.70;2.50;;;12.10;77.70;12.30;97131.00;;;;5056277;28;20260;-85
2022/10/09 06:12:45;;;;;;;3.43;2.40;;;12.10;77.70;12.40;97127.00;;;;5058838;28;20243;-87
2022/10/09 06:15:13;;;;;;;3.73;2.70;;;12.10;77.80;12.40;97130.00;;;;5075831;28;20608;-87
2022/10/09 06:17:43;;;;;;;2.70;2.50;;;12.20;77.90;12.40;97120.00;;;;5075149;28;20200;-86
2022/10/09 06:20:13;;;;;;;2.70;2.50;;;12.20;77.90;12.50;97122.00;;;;5076312;28;20192;-87
2022/10/09 06:22:45;;;;;;;3.37;2.70;;;12.20;77.90;12.50;97124.00;;;;5069416;28;20337;-86
2022/10/09 06:25:12;;;;;;;2.57;2.37;;;12.30;77.90;12.50;97130.00;;;;5073234;28;20220;-87
2022/10/09 06:27:43;;;;;;;2.33;2.13;;;12.30;77.80;12.50;97122.00;;;;5073518;28;20661;-85
2022/10/09 06:30:11;;;;;;;2.77;2.57;;;12.30;77.90;12.50;97131.00;;;;5073633;28;20236;-85
2022/10/09 06:32:38;;;;;;;2.83;2.63;;;12.40;77.90;12.60;97127.00;;;;5059689;28;20569;-85
2022/10/09 06:35:07;;;;;;;4.07;2.37;;;12.40;77.90;12.60;97129.00;;;;5055888;28;20693;-84
2022/10/09 06:37:35;;;;;;;2.73;2.53;;;12.40;77.80;12.60;97129.00;;;;5072241;28;20201;-86
2022/10/09 06:40:02;;;;;;;3.73;2.60;;;12.40;77.80;12.60;97134.00;;;;5065048;28;20634;-85
2022/10/09 06:42:31;;;;;;;2.73;2.47;;;12.40;77.90;12.70;97140.00;;;;5074637;28;20759;-85
2022/10/09 06:45:00;;;;;;;3.00;2.80;;;12.50;78.00;12.70;97133.00;;;;5076301;28;20224;-85
2022/10/09 06:47:27;;;;;;;2.60;2.40;;;12.50;78.00;12.70;97146.00;;;;5074148;28;20200;-85
2022/10/09 06:49:57;;;;;;;3.03;2.67;;;12.50;77.90;12.70;97139.00;;;;5073961;28;20600;-86
2022/10/09 06:52:26;;;;;;;2.63;2.43;;;12.60;78.70;12.80;97139.00;;;;5064572;28;20327;-87
2022/10/09 06:54:56;;;;;;;2.40;2.03;;;12.60;78.00;12.80;97135.00;;;;5074838;28;20277;-87
2022/10/09 06:57:28;;;;;;;2.53;2.43;;;12.60;78.00;12.80;97144.00;;;;5071711;28;20207;-87
2022/10/09 06:59:56;;;;;;;2.87;2.40;;;12.60;78.10;12.90;97142.00;;;;5065830;28;20261;-85
2022/10/09 07:02:24;;;;;;;3.73;2.40;;;12.60;78.10;12.90;97135.00;;;;5061427;28;20639;-86
2022/10/09 07:04:52;;;;;;;2.90;2.70;;;12.70;78.30;12.90;97138.00;;;;5069023;28;20259;-85
2022/10/09 07:07:21;;;;;;;2.97;2.77;;;12.70;78.30;13.00;97148.00;;;;5064951;28;20577;-85
2022/10/09 07:09:48;;;;;;;2.53;2.33;;;12.70;78.40;13.00;97143.00;;;;5055478;28;20189;-85
2022/10/09 07:14:44;;;;;;;3.03;2.70;;;12.80;78.40;13.10;97144.00;;;;5068437;28;20672;-80
2022/10/09 07:17:11;;;;;;;3.50;2.50;;;12.90;78.40;13.20;97144.00;;;;5077261;28;20633;-80
2022/10/09 07:19:40;;;;;;;2.57;2.37;;;12.90;78.40;13.20;97148.00;;;;5076229;28;20653;-80
2022/10/09 07:22:10;;;;;;;2.57;2.37;;;12.90;79.20;13.30;97154.00;;;;5064036;28;20276;-80
2022/10/09 07:24:37;;;;;;;2.60;2.40;;;13.00;78.50;13.30;97156.00;;;;5051851;28;20209;-80
2022/10/09 07:27:05;;;;;;;2.77;2.57;;;13.00;78.50;13.30;97157.00;;;;5046716;28;20264;-81
2022/10/09 07:29:33;;;;;;;2.63;2.33;;;13.10;78.50;13.40;97149.00;;;;5053516;28;20195;-81
2022/10/09 07:32:08;;;;;;;2.60;2.03;;;13.10;78.50;13.40;97153.00;;;;5044011;28;20693;-81
2022/10/09 07:34:40;;;;;;;2.90;2.50;;;13.10;78.50;13.50;97153.00;;;;5047792;28;20288;-80
2022/10/09 07:37:09;;;;;;;2.40;2.20;;;13.20;78.60;13.50;97154.00;;;;5052281;28;20188;-80
2022/10/09 07:39:36;;;;;;;2.77;2.30;;;13.20;78.60;13.60;97155.00;;;;5058991;28;20223;-81
2022/10/09 07:42:10;;;;;;;3.23;2.53;;;13.30;78.70;13.70;97149.00;;;;5037874;28;20221;-80
2022/10/09 07:44:40;;;;;;;3.03;2.57;;;13.30;78.80;13.70;97145.00;;;;5041179;28;20254;-81
2022/10/09 07:47:10;;;;;;;2.77;2.57;;;13.40;78.80;13.80;97159.00;;;;5059452;28;20243;-80
2022/10/09 07:49:37;;;;;;;3.87;2.30;;;13.40;78.80;13.80;97153.00;;;;5067769;28;20239;-81
2022/10/09 07:52:05;;;;;;;2.70;2.50;;;13.50;78.80;13.90;97158.00;;;;5078620;28;20283;-81
2022/10/09 07:54:35;;;;;;;2.30;2.10;;;13.50;78.90;14.00;97164.00;;;;5062372;28;20224;-80
2022/10/09 07:57:02;;;;;;;3.23;2.53;;;13.60;78.90;14.00;97157.00;;;;5069942;28;20243;-80
2022/10/09 07:59:30;;;;;;;2.57;2.20;;;13.70;79.00;14.10;97169.00;;;;5055178;28;20738;-81
2022/10/09 08:01:57;;;;;;;2.30;2.10;;;13.70;79.00;14.20;97167.00;;;;5054137;28;20247;-80
2022/10/09 08:04:29;;;;;;;2.60;2.40;;;13.70;78.90;14.20;97165.00;;;;5051553;28;20661;-80
2022/10/09 08:06:58;;;;;;;3.93;2.80;;;13.80;79.00;14.30;97165.00;;;;5062485;28;20213;-80
2022/10/09 08:09:30;;;;;;;2.20;2.00;;;13.90;79.10;14.40;97163.00;;;;5044951;28;20595;-80
2022/10/09 08:11:57;;;;;;;2.70;2.50;;;14.00;79.10;14.50;97168.00;;;;5051710;28;20213;-80
2022/10/09 08:14:25;;;;;;;2.50;2.30;;;14.00;79.10;14.50;97160.00;;;;5043588;28;20732;-80
2022/10/09 08:16:57;;;;;;;2.17;2.07;;;14.10;79.00;14.60;97166.00;;;;5051372;28;20200;-80
2022/10/09 08:19:24;;;;;;;2.63;2.40;;;14.10;79.00;14.70;97161.00;;;;5043432;28;20199;-80
2022/10/09 08:21:51;;;;;;;2.53;2.33;;;14.20;78.90;14.70;97159.00;;;;5044458;28;20777;-80
2022/10/09 08:24:18;;;;;;;2.60;2.20;;;14.30;78.80;14.80;97166.00;;;;5043840;28;20217;-80
2022/10/09 08:26:50;;;;;;;2.50;2.30;;;14.30;78.70;14.90;97170.00;;;;5061228;28;20303;-80
2022/10/09 08:29:19;;;;;;;5.30;2.33;;;14.40;78.80;14.90;97169.00;;;;5051818;28;20195;-80
2022/10/09 08:31:46;;;;;;;2.43;2.23;;;14.50;78.90;15.00;97166.00;;;;5053140;28;20220;-81
2022/10/09 08:34:14;;;;;;;2.43;2.23;;;14.50;78.70;15.10;97161.00;;;;5036611;28;20236;-81
2022/10/09 08:36:44;;;;;;;2.80;2.50;;;14.60;78.80;15.10;97167.00;;;;5052281;28;20283;-80
2022/10/09 08:39:16;;;;;;;3.23;2.83;;;14.60;78.70;15.20;97162.00;;;;5048064;28;20189;-80
2022/10/09 08:41:48;;;;;;;3.27;2.53;;;14.70;78.70;15.20;97160.00;;;;5049069;28;20244;-80
2022/10/09 08:44:23;;;;;;;2.50;2.30;;;14.80;78.80;15.30;97171.00;;;;5037097;28;20198;-81
2022/10/09 08:47:05;;;;;;;3.13;2.67;;;14.80;78.80;15.40;97164.00;;;;5064253;28;20219;-80
2022/10/09 08:49:47;;;;;;;2.73;2.50;;;14.90;78.80;15.50;97171.00;;;;5043460;28;20221;-80
2022/10/09 08:52:30;;;;;;;2.70;2.50;;;15.00;78.80;15.50;97175.00;;;;5038053;28;20225;-80
2022/10/09 08:55:06;;;;;;;3.87;2.57;;;15.10;78.70;15.60;97172.00;;;;5061637;28;20192;-80
2022/10/09 08:57:35;;;;;;;4.07;2.70;;;15.10;78.70;15.70;97164.00;;;;5054733;28;20546;-80
2022/10/09 09:00:02;;;;;;;2.83;2.57;;;15.20;78.70;15.80;97164.00;;;;5054025;28;20665;-81
2022/10/09 09:03:01;;;;;;;2.77;2.57;;;15.30;78.60;15.80;97157.00;;;;5043532;28;20307;-80
2022/10/09 09:05:45;;;;;;;3.37;2.67;;;15.30;78.50;15.90;97156.00;;;;5050221;28;20248;-81
2022/10/09 09:08:29;;;;;;;3.27;2.97;;;15.40;78.50;16.00;97147.00;;;;5043856;28;20224;-81
2022/10/09 09:11:15;;;;;;;2.97;2.77;;;15.50;78.50;16.00;97153.00;;;;5054561;28;20244;-80
2022/10/09 09:14:01;;;;;;;4.13;2.90;;;15.50;78.30;16.10;97141.00;;;;5049441;28;20204;-80
2022/10/09 09:16:43;;;;;;;3.20;2.90;;;15.60;78.30;16.20;97142.00;;;;5056423;28;20207;-80
2022/10/09 09:19:39;;;;;;;3.10;2.90;;;15.70;78.40;16.20;97134.00;;;;5052898;28;20584;-80
2022/10/09 09:22:13;;;;;;;3.47;2.83;;;15.90;78.60;16.30;97145.00;;;;5044689;28;20607;-81
2022/10/09 09:24:46;;;;;;;2.93;2.60;;;15.80;78.50;16.40;97134.00;;;;5059357;28;20193;-80
2022/10/09 09:27:18;;;;;;;3.33;2.60;;;15.90;78.40;16.50;97136.00;;;;5055853;28;20727;-81
2022/10/09 09:29:55;;;;;;;3.00;2.20;;;15.90;78.20;16.60;97134.00;;;;5053666;28;20196;-81
2022/10/09 09:32:26;;;;;;;4.93;2.57;;;16.00;78.20;16.60;97138.00;;;;5061333;28;20258;-81
2022/10/09 09:35:06;;;;;;;3.10;2.80;;;16.00;78.10;16.70;97129.00;;;;5056767;28;20680;-81
2022/10/09 09:37:36;;;;;;;3.10;2.60;;;16.20;78.00;16.80;97129.00;;;;5066269;28;20227;-81
2022/10/09 09:40:15;;;;;;;4.07;2.87;;;16.20;78.10;16.80;97115.00;;;;5057549;28;20201;-81
2022/10/09 09:42:45;;;;;;;2.97;2.77;;;16.30;78.10;16.90;97115.00;;;;5057439;28;20660;-80
2022/10/09 09:45:23;;;;;;;2.63;2.43;;;16.30;77.80;17.00;97108.00;;;;5049989;28;20201;-80
2022/10/09 09:48:09;;;;;;;3.17;2.40;;;16.40;78.30;17.00;97116.00;;;;5048070;28;20192;-80
2022/10/09 09:50:48;;;;;;;2.83;2.57;;;16.50;77.80;17.10;97111.00;;;;5080191;28;20199;-80
2022/10/09 09:53:26;;;;;;;2.97;2.47;;;16.60;77.90;17.20;97111.00;;;;5060520;28;20216;-80
2022/10/09 09:55:55;;;;;;;2.87;2.67;;;16.60;77.80;17.30;97102.00;;;;5052530;28;20243;-80
2022/10/09 09:58:36;;;;;;;2.50;2.30;;;16.70;77.90;17.40;97100.00;;;;5044391;28;20288;-81
2022/10/09 10:01:06;;;;;;;3.83;2.60;;;16.80;77.90;17.50;97100.00;;;;5052431;28;20323;-81
2022/10/09 10:03:35;;;;;;;2.33;2.17;;;16.90;77.60;17.50;97096.00;;;;5049500;28;20649;-81
2022/10/09 10:06:03;;;;;;;2.10;1.93;;;17.00;77.60;17.60;97105.00;;;;5054250;28;20693;-80
2022/10/09 10:08:34;;;;;;;2.60;2.40;;;17.00;77.40;17.70;97103.00;;;;5046001;28;20227;-80
2022/10/09 10:11:06;;;;;;;2.33;2.13;;;17.10;77.30;17.80;97094.00;;;;5052391;28;20686;-81
2022/10/09 10:13:38;;;;;;;2.23;1.73;;;17.20;77.20;17.90;97098.00;;;;5050845;28;20439;-81
2022/10/09 10:16:08;;;;;;;2.13;1.93;;;17.30;77.10;18.00;97099.00;;;;5056296;28;20228;-81
2022/10/09 10:18:40;;;;;;;3.47;1.80;;;17.40;77.20;18.10;97097.00;;;;5050460;28;20207;-81
2022/10/09 10:21:13;;;;;;;2.03;1.60;;;17.50;77.00;18.20;97090.00;;;;5063483;28;20196;-81
2022/10/09 10:23:44;;;;;;;3.37;1.60;;;17.60;76.80;18.20;97082.00;;;;5056346;28;20223;-80
2022/10/09 10:26:24;;;;;;;2.10;1.57;;;17.60;76.30;18.30;97082.00;;;;5073437;28;20252;-81
2022/10/09 10:28:59;;;;;;;2.10;1.60;;;17.70;75.70;18.40;97077.00;;;;5061861;28;20211;-81
2022/10/09 10:31:50;;;;;;;2.33;1.40;;;17.80;75.40;18.40;97073.00;;;;5057465;28;20243;-81
2022/10/09 10:34:24;;;;;;;1.83;1.70;;;17.90;74.90;18.50;97069.00;;;;5050079;28;20665;-81
2022/10/09 10:37:00;;;;;;;1.50;1.40;;;17.90;74.90;18.60;97073.00;;;;5063133;28;20215;-82
2022/10/09 10:39:38;;;;;;;1.73;1.60;;;18.00;74.50;18.60;97072.00;;;;5071021;28;20273;-81
2022/10/09 10:42:18;;;;;;;1.53;1.43;;;18.10;73.70;18.70;97066.00;;;;5046230;28;20248;-80
2022/10/09 10:44:58;;;;;;;2.73;1.80;;;18.10;73.70;18.70;97070.00;;;;5055875;28;20236;-79
2022/10/09 10:47:32;;;;;;;2.37;1.70;;;18.20;73.10;18.70;97065.00;;;;5040465;28;20241;-81
2022/10/09 10:49:59;;;;;;;1.40;1.30;;;18.20;72.90;18.80;97069.00;;;;5060909;28;20239;-80
2022/10/09 10:52:43;;;;;;;1.40;1.30;;;18.30;73.00;18.80;97068.00;;;;5057979;28;20269;-80
2022/10/09 10:55:26;;;;;;;2.23;1.30;;;18.30;72.50;18.90;97058.00;;;;5052297;28;20220;-80
2022/10/09 10:58:09;;;;;;;1.73;1.20;;;18.40;72.60;18.90;97063.00;;;;5055176;28;20199;-81
2022/10/09 11:00:43;;;;;;;1.53;1.43;;;18.40;72.50;18.90;97062.00;;;;5050983;28;20201;-80
2022/10/09 11:03:44;;;;;;;3.03;1.40;;;18.40;71.70;19.00;97055.00;;;;5053795;28;20247;-81
2022/10/09 11:06:23;;;;;;;1.43;1.33;;;18.50;71.40;19.00;97056.00;;;;5065666;28;20696;-80
2022/10/09 11:09:05;;;;;;;1.63;1.30;;;18.50;71.10;19.00;97051.00;;;;5046697;28;20220;-81
2022/10/09 11:11:40;;;;;;;1.43;1.27;;;18.50;70.90;19.00;97048.00;;;;5057915;28;20244;-80
2022/10/09 11:14:32;;;;;;;1.50;1.40;;;18.60;71.10;19.10;97056.00;;;;5057078;28;20242;-80
2022/10/09 11:17:09;;;;;;;1.63;1.20;;;18.60;70.60;19.10;97047.00;;;;5060920;28;20269;-80
2022/10/09 11:20:08;;;;;;;1.43;1.10;;;18.60;70.90;19.10;97046.00;;;;5073726;28;20188;-80
2022/10/09 11:22:59;;;;;;;2.63;1.17;;;18.60;70.10;19.10;97042.00;;;;5066670;28;20220;-80
2022/10/09 11:25:35;;;;;;;1.97;1.40;;;18.70;70.30;19.20;97037.00;;;;5049798;28;20215;-79
2022/10/09 11:28:09;;;;;;;2.37;1.27;;;18.70;70.20;19.20;97029.00;;;;5055747;28;20262;-80
2022/10/09 11:30:46;;;;;;;1.30;1.20;;;18.70;70.40;19.20;97023.00;;;;5065489;28;20188;-81